Airport, Ohio
Current Conditions -  °F | °C
As of 3:52 PM on Tuesday 27 Jan 2015 (Local Time) from KCVG Reporting Station
Clear Clear  
Wind Chill: 20°   Ceiling: Unl
Heat Index: 30°   Visibility: 10mi
Dew Point: 13°   Wind: 13mph
Humidity: 49%   Direction: 340°NNW
Pressure: 30.1"   Gusts: NA
Location:  39.0588°N, 84.6513°W
Report Text: KCVG 272052Z 34011KT 10SM CLR M01/M11 A3010 RMK AO2 SLP201 T10111106 53009
Loading
Personal Weather Stations






























Interactive Weather Map New forecast layout! Learn more

10-Day Weather Forecast

Advertisements
Track Severe Weather on mobile